Time;durP1;ratioP1;P1;durP2;ratioP2;P2;SDS_P1;SDS_P2;PMS_P1;PMS_P2;Temp;Humidity;BMP_temperature;BMP_pressure;BME280_temperature;BME280_humidity;BME280_pressure;Samples;Min_cycle;Max_cycle;Signal;HPM_P1;HPM_P2
2021/09/30 00:00:07;;;;;;;1.33;0.90;;;;;;;9.67;100.00;96779.25;1023583;28;20447;-67
2021/09/30 00:00:39;;;;;;;2.70;1.08;;;;;;;9.66;100.00;96783.72;1027163;28;20019;-67
2021/09/30 00:01:10;;;;;;;1.08;0.70;;;;;;;9.65;100.00;96791.78;1025722;28;20358;-63
2021/09/30 00:01:40;;;;;;;2.72;1.23;;;;;;;9.65;100.00;96787.34;1026887;28;20265;-64
2021/09/30 00:02:10;;;;;;;3.95;1.00;;;;;;;9.64;100.00;96788.38;1029710;28;20053;-67
2021/09/30 00:02:41;;;;;;;2.67;1.00;;;;;;;9.64;100.00;96788.38;1026634;28;20015;-66
2021/09/30 00:03:12;;;;;;;2.10;0.70;;;;;;;9.57;100.00;96779.84;1022347;29;20043;-66
2021/09/30 00:03:42;;;;;;;4.40;0.95;;;;;;;9.63;100.00;96786.00;1022264;29;20024;-65
2021/09/30 00:04:13;;;;;;;0.82;0.70;;;;;;;9.65;100.00;96792.59;1022458;29;20270;-66
2021/09/30 00:04:43;;;;;;;3.92;0.90;;;;;;;9.65;100.00;96789.97;1022564;28;20019;-66
2021/09/30 00:05:14;;;;;;;2.55;0.90;;;;;;;9.64;100.00;96791.00;1030066;28;20027;-67
2021/09/30 00:05:44;;;;;;;3.03;0.60;;;;;;;9.65;100.00;96787.34;1022355;29;20055;-67
2021/09/30 00:06:15;;;;;;;1.60;0.98;;;;;;;9.64;100.00;96791.00;1018681;29;20016;-66
2021/09/30 00:06:45;;;;;;;3.15;0.90;;;;;;;9.64;100.00;96791.00;1018573;28;20031;-66
2021/09/30 00:07:16;;;;;;;3.97;0.80;;;;;;;9.62;100.00;96795.69;1022440;28;20382;-65
2021/09/30 00:07:46;;;;;;;4.53;0.90;;;;;;;9.62;100.00;96795.69;1030385;28;20039;-65
2021/09/30 00:08:16;;;;;;;1.67;1.00;;;;;;;9.59;100.00;96796.16;1030437;28;20022;-66
2021/09/30 00:08:48;;;;;;;2.15;1.08;;;;;;;9.60;100.00;96792.50;1033172;28;20022;-64
2021/09/30 00:09:18;;;;;;;1.75;0.90;;;;;;;9.60;100.00;96797.72;1030641;28;20054;-68
2021/09/30 00:09:49;;;;;;;2.20;0.90;;;;;;;9.60;100.00;96800.34;1034391;28;20261;-66
2021/09/30 00:10:22;;;;;;;1.83;0.80;;;;;;;9.54;100.00;96796.03;1030435;28;20010;-66
2021/09/30 00:11:00;;;;;;;1.52;0.85;;;;;;;9.57;100.00;96806.03;1022701;28;20663;-66
2021/09/30 00:11:31;;;;;;;1.27;0.90;;;;;;;9.57;100.00;96794.78;1026904;28;20264;-66
2021/09/30 00:12:09;;;;;;;1.05;0.80;;;;;;;9.58;100.00;96799.78;1027372;28;20266;-66
2021/09/30 00:12:44;;;;;;;1.70;0.77;;;;;;;9.57;100.00;96805.25;1026567;28;20353;-66
2021/09/30 00:13:38;;;;;;;0.98;0.73;;;;;;;9.51;100.00;96786.00;1025560;28;20769;-67
2021/09/30 00:14:10;;;;;;;3.22;0.95;;;;;;;9.53;100.00;96794.44;1029726;28;20278;-65
2021/09/30 00:14:48;;;;;;;1.08;0.68;;;;;;;9.53;100.00;96799.69;1030629;28;20483;-66
2021/09/30 00:15:30;;;;;;;2.03;1.02;;;;;;;9.54;100.00;96796.03;1030849;28;20316;-66
2021/09/30 00:18:25;;;;;;;1.50;1.13;;;;;;;9.46;100.00;96793.75;1023629;28;20694;-66
2021/09/30 00:34:11;;;;;;;4.93;1.00;;;;;;;9.13;100.00;96804.81;1039391;28;20280;-67
2021/09/30 00:39:59;;;;;;;2.45;0.80;;;;;;;9.06;100.00;96810.16;1035793;28;20249;-66
2021/09/30 00:41:19;;;;;;;5.32;0.98;;;;;;;9.03;100.00;96815.81;1031531;28;20323;-66
2021/09/30 00:45:22;;;;;;;5.72;0.93;;;;;;;8.91;100.00;96801.91;1031199;28;20324;-67
2021/09/30 00:45:28;;;;;;;1.85;0.70;;;;;;;8.90;100.00;96821.25;1040997;28;20318;-66
2021/09/30 00:45:51;;;;;;;4.95;0.75;;;;;;;8.89;100.00;96812.63;1043729;28;20267;-64
2021/09/30 00:48:49;;;;;;;3.05;0.70;;;;;;;8.85;100.00;96823.75;1031215;28;20254;-66
2021/09/30 00:49:37;;;;;;;;;;;;;;;8.83;100.00;96823.97;1027834;28;20393;-66
2021/09/30 00:50:33;;;;;;;1.50;0.80;;;;;;;8.82;100.00;96821.56;1034163;28;19912;-66
2021/09/30 00:51:58;;;;;;;3.88;0.95;;;;;;;8.77;100.00;96814.41;1039261;28;20275;-65
2021/09/30 00:52:45;;;;;;;0.73;0.50;;;;;;;8.74;100.00;96812.22;1039822;28;20256;-66
2021/09/30 00:55:31;;;;;;;2.03;0.77;;;;;;;8.66;100.00;96815.97;1035453;28;20162;-66
2021/09/30 01:18:15;;;;;;;2.28;0.73;;;;;;;8.60;100.00;96816.88;1035450;28;20050;-67
2021/09/30 01:33:05;;;;;;;2.05;1.02;;;;;;;8.10;100.00;96830.16;1030399;28;20272;-66
2021/09/30 02:19:35;;;;;;;5.10;0.95;;;;;;;8.10;100.00;96858.91;1021438;29;20826;-67
2021/09/30 02:20:20;;;;;;;4.32;1.02;;;;;;;8.08;100.00;96866.19;1028813;28;20262;-64
2021/09/30 02:22:37;;;;;;;2.85;1.10;;;;;;;8.13;100.00;96863.69;1026642;28;20338;-67
2021/09/30 02:24:01;;;;;;;3.65;1.02;;;;;;;8.14;100.00;96862.69;1022732;29;20626;-66
2021/09/30 02:25:04;;;;;;;2.33;1.35;;;;;;;8.15;100.00;96872.13;1021369;29;20035;-67
2021/09/30 02:25:47;;;;;;;3.10;1.15;;;;;;;8.08;100.00;96853.13;1026315;28;20260;-66
2021/09/30 02:27:42;;;;;;;2.58;0.90;;;;;;;8.17;100.00;96874.50;1027107;28;20022;-66
2021/09/30 02:28:41;;;;;;;3.58;1.15;;;;;;;8.17;100.00;96870.09;1026687;28;20277;-67
2021/09/30 02:29:53;;;;;;;3.95;1.42;;;;;;;8.18;100.00;96866.47;1022485;29;20503;-67
2021/09/30 02:58:41;;;;;;;7.15;1.20;;;;;;;7.97;100.00;96875.53;1032542;28;20647;-66
2021/09/30 02:59:13;;;;;;;3.63;1.10;;;;;;;7.97;100.00;96877.34;1023618;28;20266;-68
2021/09/30 02:59:43;;;;;;;2.00;1.00;;;;;;;8.01;100.00;96876.72;1022938;29;20429;-66
2021/09/30 03:00:14;;;;;;;2.00;1.00;;;;;;;8.03;100.00;96874.66;1026312;28;20266;-66
2021/09/30 03:00:45;;;;;;;1.45;0.98;;;;;;;7.99;100.00;96868.28;1026753;28;20031;-67
2021/09/30 03:01:20;;;;;;;2.10;1.05;;;;;;;8.06;100.00;96872.63;1022889;28;20736;-66
2021/09/30 03:01:50;;;;;;;4.00;1.30;;;;;;;8.04;100.00;96875.47;1023291;28;20016;-66
2021/09/30 03:02:21;;;;;;;2.88;1.00;;;;;;;8.02;100.00;96869.66;1022704;29;20259;-65
2021/09/30 03:02:52;;;;;;;1.98;1.05;;;;;;;8.04;100.00;96870.22;1018930;29;20030;-66
2021/09/30 03:03:23;;;;;;;1.70;0.98;;;;;;;8.08;100.00;96876.63;1022698;29;20011;-67
2021/09/30 03:03:54;;;;;;;2.95;1.27;;;;;;;8.09;100.00;96878.22;1026781;28;20837;-67
2021/09/30 03:04:25;;;;;;;4.00;1.25;;;;;;;8.09;100.00;96877.44;1022577;29;20275;-66
2021/09/30 03:04:55;;;;;;;2.53;0.88;;;;;;;8.06;100.00;96873.44;1026613;28;20520;-68
2021/09/30 03:05:26;;;;;;;6.53;1.30;;;;;;;8.04;100.00;96865.00;1024895;28;20010;-66
2021/09/30 03:05:56;;;;;;;4.65;1.45;;;;;;;8.08;100.00;96876.63;1022560;29;20772;-66
2021/09/30 03:06:27;;;;;;;5.25;1.10;;;;;;;8.10;100.00;96884.25;1026400;28;20031;-65
2021/09/30 03:07:00;;;;;;;3.38;1.02;;;;;;;8.11;100.00;96880.63;1026820;28;20018;-66
2021/09/30 03:07:30;;;;;;;3.75;1.00;;;;;;;8.10;100.00;96874.59;1026460;28;20667;-67
2021/09/30 03:08:01;;;;;;;2.85;0.85;;;;;;;8.12;100.00;96883.03;1018963;29;20267;-66
2021/09/30 03:08:41;;;;;;;2.85;1.23;;;;;;;8.13;100.00;96882.00;1022550;29;20019;-66
2021/09/30 03:09:12;;;;;;;2.97;1.20;;;;;;;8.11;100.00;96875.38;1021000;28;20031;-66
2021/09/30 03:09:45;;;;;;;4.07;0.85;;;;;;;8.10;100.00;96877.19;1018947;29;20286;-66
2021/09/30 03:10:15;;;;;;;5.07;1.02;;;;;;;8.10;100.00;96882.44;1022725;29;20353;-67
2021/09/30 03:10:51;;;;;;;3.30;1.17;;;;;;;8.09;100.00;96878.22;1029697;28;20857;-65
2021/09/30 03:11:21;;;;;;;2.90;0.90;;;;;;;8.08;100.00;96881.88;1026051;28;20542;-67
2021/09/30 03:11:54;;;;;;;2.13;1.25;;;;;;;8.08;100.00;96881.03;1022446;29;20311;-67
2021/09/30 03:12:29;;;;;;;5.85;0.95;;;;;;;8.09;100.00;96883.47;1022540;29;20076;-66
2021/09/30 03:12:59;;;;;;;1.48;0.73;;;;;;;8.02;100.00;96885.34;1026765;28;21144;-66
2021/09/30 03:13:30;;;;;;;2.80;1.63;;;;;;;8.08;100.00;96892.31;1026723;28;20276;-66
2021/09/30 03:14:03;;;;;;;3.42;1.23;;;;;;;8.07;100.00;96885.47;1019833;29;20023;-67
2021/09/30 03:14:40;;;;;;;5.70;1.00;;;;;;;8.05;100.00;96892.75;1019734;29;20833;-66
2021/09/30 03:15:28;;;;;;;5.78;1.40;;;;;;;8.06;100.00;96889.13;1024290;28;20142;-64
2021/09/30 03:16:04;;;;;;;3.58;1.17;;;;;;;8.04;100.00;96893.75;1026783;28;20270;-66
2021/09/30 03:16:47;;;;;;;1.77;0.85;;;;;;;8.03;100.00;96889.56;1026696;28;20274;-66
2021/09/30 03:17:20;;;;;;;2.08;0.82;;;;;;;8.05;100.00;96898.00;1018489;28;20271;-66
2021/09/30 03:17:55;;;;;;;1.88;0.95;;;;;;;8.05;100.00;96890.16;1022826;29;20294;-66
2021/09/30 03:18:29;;;;;;;3.08;0.90;;;;;;;8.01;100.00;96891.56;1022756;29;20267;-65
2021/09/30 03:19:15;;;;;;;7.93;1.23;;;;;;;8.03;100.00;96897.38;1027171;28;20404;-67
2021/09/30 03:20:00;;;;;;;4.13;1.25;;;;;;;7.97;100.00;96885.97;1026669;28;20361;-65
2021/09/30 03:22:42;;;;;;;5.88;1.30;;;;;;;8.01;100.00;96902.03;1026852;28;20266;-66
2021/09/30 03:23:19;;;;;;;8.50;1.17;;;;;;;8.00;100.00;96901.22;1029566;28;20261;-66
2021/09/30 03:23:49;;;;;;;3.60;0.85;;;;;;;7.96;100.00;96894.84;1030326;28;20049;-67
2021/09/30 03:24:19;;;;;;;3.65;1.00;;;;;;;8.00;100.00;96900.44;1024819;28;20390;-66
2021/09/30 03:24:50;;;;;;;4.22;1.10;;;;;;;7.99;100.00;96893.63;1022714;29;20023;-66
2021/09/30 03:25:20;;;;;;;4.47;0.98;;;;;;;7.99;100.00;96893.63;1018693;29;20047;-66
2021/09/30 03:25:54;;;;;;;2.90;1.10;;;;;;;7.95;100.00;96895.88;1018847;29;20030;-67
2021/09/30 03:26:25;;;;;;;3.90;1.10;;;;;;;7.98;100.00;96903.28;1026053;28;20027;-67
2021/09/30 03:26:56;;;;;;;1.40;0.70;;;;;;;7.99;100.00;96904.88;1026747;28;20269;-66
2021/09/30 03:27:27;;;;;;;5.43;1.33;;;;;;;7.98;100.00;96903.28;1027307;28;20294;-66
2021/09/30 03:27:57;;;;;;;2.45;1.00;;;;;;;7.98;100.00;96899.84;1026739;28;20476;-66
2021/09/30 03:28:29;;;;;;;3.67;1.08;;;;;;;7.91;100.00;96896.50;1030828;28;20022;-66
2021/09/30 03:29:01;;;;;;;1.40;0.77;;;;;;;7.99;100.00;96904.06;1022572;29;20490;-67
2021/09/30 03:29:31;;;;;;;3.65;1.15;;;;;;;7.96;100.00;96899.28;1022354;28;20708;-63
2021/09/30 03:30:01;;;;;;;3.50;0.82;;;;;;;7.95;100.00;96893.25;1026874;28;20365;-66
2021/09/30 03:30:32;;;;;;;1.23;1.00;;;;;;;7.92;100.00;96898.91;1022617;29;20038;-67
2021/09/30 03:31:03;;;;;;;3.13;0.95;;;;;;;7.95;100.00;96900.31;1022676;29;20523;-67
2021/09/30 03:31:33;;;;;;;1.70;1.10;;;;;;;7.92;100.00;96904.16;1022756;28;20073;-67
2021/09/30 03:32:04;;;;;;;6.15;1.00;;;;;;;7.91;100.00;96901.72;1022722;29;20023;-67
2021/09/30 03:32:34;;;;;;;3.22;0.75;;;;;;;7.92;100.00;96903.34;1015157;29;20870;-66
2021/09/30 03:33:06;;;;;;;3.47;1.05;;;;;;;7.84;100.00;96890.53;1019657;28;20075;-64
2021/09/30 03:33:37;;;;;;;2.80;0.90;;;;;;;7.90;100.00;96906.16;1030777;28;20073;-67
2021/09/30 03:34:07;;;;;;;2.25;1.13;;;;;;;7.89;100.00;96907.19;1026591;28;20337;-66
2021/09/30 03:34:38;;;;;;;1.90;0.80;;;;;;;7.85;100.00;96898.19;1018501;29;20028;-65
2021/09/30 03:35:11;;;;;;;5.32;1.05;;;;;;;7.89;100.00;96903.78;1022489;29;20517;-66
2021/09/30 03:35:41;;;;;;;2.60;1.00;;;;;;;7.87;100.00;96898.75;1018522;29;20051;-67
2021/09/30 03:36:15;;;;;;;2.00;1.20;;;;;;;7.87;100.00;96903.19;1017921;29;20303;-66
2021/09/30 03:36:45;;;;;;;5.25;1.17;;;;;;;7.84;100.00;96904.41;1018518;29;20057;-63
2021/09/30 03:37:15;;;;;;;2.25;0.93;;;;;;;7.86;100.00;96907.63;1018587;29;20290;-66
2021/09/30 03:37:46;;;;;;;3.58;0.90;;;;;;;7.85;100.00;96902.63;1018815;29;20039;-64
2021/09/30 03:38:16;;;;;;;2.75;1.05;;;;;;;7.79;100.00;96893.81;1022449;28;20044;-66
2021/09/30 03:38:47;;;;;;;3.78;0.90;;;;;;;7.84;100.00;96903.63;1022489;28;20109;-64
2021/09/30 03:39:23;;;;;;;2.88;0.88;;;;;;;7.84;100.00;96903.63;1026662;28;20354;-67
2021/09/30 03:39:54;;;;;;;3.42;0.90;;;;;;;7.83;100.00;96899.41;1023625;28;20031;-66
2021/09/30 03:40:24;;;;;;;9.70;1.38;;;;;;;7.84;100.00;96912.25;1023562;28;20322;-66
2021/09/30 03:40:55;;;;;;;2.35;1.00;;;;;;;7.81;100.00;96904.84;1026763;28;20030;-66
2021/09/30 03:41:25;;;;;;;2.45;1.00;;;;;;;7.80;100.00;96905.84;1018033;28;20567;-63
2021/09/30 03:41:56;;;;;;;7.07;1.00;;;;;;;7.82;100.00;96905.66;1023128;28;20027;-66
2021/09/30 03:42:26;;;;;;;2.38;1.08;;;;;;;7.79;100.00;96902.44;1022591;29;20027;-64
2021/09/30 03:42:56;;;;;;;4.15;0.95;;;;;;;7.78;100.00;96911.31;1022844;28;20074;-66
2021/09/30 03:43:27;;;;;;;4.47;1.30;;;;;;;7.77;100.00;96908.91;1029869;28;20038;-66
2021/09/30 03:44:00;;;;;;;1.98;1.10;;;;;;;7.74;100.00;96907.50;1026409;28;20046;-67
2021/09/30 03:44:31;;;;;;;3.58;1.30;;;;;;;7.75;100.00;96908.34;1026566;28;20055;-66
2021/09/30 03:45:02;;;;;;;9.48;1.10;;;;;;;7.72;100.00;96909.56;1025625;28;20282;-66
2021/09/30 03:45:33;;;;;;;2.40;1.10;;;;;;;7.67;100.00;96904.16;1023674;28;20481;-66
2021/09/30 03:46:03;;;;;;;2.17;1.13;;;;;;;7.65;100.00;96903.59;1030480;28;20307;-67
2021/09/30 03:46:34;;;;;;;2.38;1.15;;;;;;;7.65;100.00;96903.59;1018698;29;20118;-66
2021/09/30 03:47:05;;;;;;;3.35;0.98;;;;;;;7.70;100.00;96908.16;1025785;28;20115;-66
2021/09/30 03:47:35;;;;;;;5.13;1.15;;;;;;;7.69;100.00;96907.38;1026569;28;20039;-67
2021/09/30 03:48:06;;;;;;;2.50;0.80;;;;;;;7.68;100.00;96903.16;1030371;28;20037;-65
2021/09/30 03:48:37;;;;;;;4.30;1.45;;;;;;;7.69;100.00;96907.38;1024885;28;20484;-67
2021/09/30 03:49:10;;;;;;;2.67;0.90;;;;;;;7.67;100.00;96909.38;1022619;29;20035;-66
2021/09/30 03:49:43;;;;;;;4.50;1.05;;;;;;;7.67;100.00;96901.56;1018589;29;20098;-68
2021/09/30 03:50:20;;;;;;;2.63;0.95;;;;;;;7.70;100.00;96910.78;1015759;29;20276;-67
2021/09/30 03:51:14;;;;;;;5.03;0.98;;;;;;;7.68;100.00;96905.78;1022480;29;20713;-67
2021/09/30 03:52:40;;;;;;;1.73;0.70;;;;;;;7.68;100.00;96905.78;1030286;28;20356;-66
2021/09/30 03:54:36;;;;;;;2.90;0.85;;;;;;;7.68;100.00;96904.97;1021222;28;20314;-66
2021/09/30 03:56:49;;;;;;;3.40;0.90;;;;;;;7.66;100.00;96914.84;1033053;28;20296;-67
2021/09/30 03:59:28;;;;;;;4.10;1.40;;;;;;;7.61;100.00;96912.06;1021894;28;20271;-63
2021/09/30 03:59:58;;;;;;;5.03;0.95;;;;;;;7.63;100.00;96925.72;1032745;28;20364;-66
2021/09/30 04:00:29;;;;;;;3.42;1.23;;;;;;;7.61;100.00;96910.25;1030564;28;20022;-67
2021/09/30 04:00:59;;;;;;;2.97;0.70;;;;;;;7.63;100.00;96915.25;1030569;28;20065;-66
2021/09/30 04:01:30;;;;;;;2.97;1.00;;;;;;;7.62;100.00;96918.91;1029770;28;20026;-67
2021/09/30 04:02:02;;;;;;;3.38;0.75;;;;;;;7.60;100.00;96911.25;1029715;28;20033;-67
2021/09/30 04:02:32;;;;;;;4.05;1.13;;;;;;;7.62;100.00;96911.84;1024980;28;20027;-66
2021/09/30 04:03:03;;;;;;;2.97;1.00;;;;;;;7.61;100.00;96910.25;1027035;28;20751;-66
2021/09/30 04:03:33;;;;;;;2.60;0.93;;;;;;;7.61;100.00;96912.84;1030058;28;20623;-66
2021/09/30 04:04:04;;;;;;;4.43;1.40;;;;;;;7.54;100.00;96907.72;1023378;28;20521;-67
2021/09/30 04:04:35;;;;;;;2.55;1.20;;;;;;;7.55;100.00;96911.91;1030570;28;20029;-67
2021/09/30 04:05:06;;;;;;;2.72;0.88;;;;;;;7.58;100.00;96923.75;1026341;28;20019;-67
2021/09/30 04:05:36;;;;;;;5.72;1.10;;;;;;;7.55;100.00;96918.97;1026598;28;20752;-67
2021/09/30 04:06:07;;;;;;;3.45;0.90;;;;;;;7.56;100.00;96925.78;1022533;29;20050;-65
2021/09/30 04:06:39;;;;;;;1.80;1.02;;;;;;;7.56;100.00;96923.16;1022766;28;20030;-67
2021/09/30 04:07:09;;;;;;;3.97;1.38;;;;;;;7.56;100.00;96923.16;1027720;28;20031;-67
2021/09/30 04:07:40;;;;;;;5.68;1.02;;;;;;;7.53;100.00;96924.38;1027541;28;20266;-67
2021/09/30 04:08:10;;;;;;;2.72;0.70;;;;;;;7.50;100.00;96916.97;1023334;28;20027;-67
2021/09/30 04:08:41;;;;;;;2.58;0.82;;;;;;;7.51;100.00;96912.53;1021823;29;20114;-66
2021/09/30 04:09:11;;;;;;;4.25;1.20;;;;;;;7.55;100.00;96918.97;1025019;28;20027;-66
2021/09/30 04:09:42;;;;;;;2.25;0.93;;;;;;;7.55;100.00;96918.97;1023474;28;20485;-67
2021/09/30 04:10:12;;;;;;;3.92;1.30;;;;;;;7.54;100.00;96925.16;1023502;28;20033;-64
2021/09/30 04:10:43;;;;;;;5.75;1.23;;;;;;;7.49;100.00;96914.59;1029818;28;20030;-66
2021/09/30 04:11:13;;;;;;;2.85;0.80;;;;;;;7.52;100.00;96914.94;1026743;28;20026;-66
2021/09/30 04:11:45;;;;;;;2.80;0.82;;;;;;;7.51;100.00;96912.53;1031287;28;20045;-67
2021/09/30 04:12:16;;;;;;;7.43;1.30;;;;;;;7.54;100.00;96917.34;1030947;28;20539;-66
2021/09/30 04:12:46;;;;;;;4.30;1.08;;;;;;;7.55;100.00;96918.97;1035397;28;20364;-66
2021/09/30 04:13:17;;;;;;;2.15;1.08;;;;;;;7.55;100.00;96921.56;1027300;28;20548;-67
2021/09/30 04:13:47;;;;;;;4.75;1.40;;;;;;;7.53;100.00;96926.19;1023689;28;20504;-66
2021/09/30 04:14:21;;;;;;;3.22;1.30;;;;;;;7.52;100.00;96929.81;1031364;28;20030;-67
2021/09/30 04:14:52;;;;;;;4.38;1.45;;;;;;;7.51;100.00;96928.19;1027655;28;20756;-68
2021/09/30 04:15:22;;;;;;;1.63;0.75;;;;;;;7.50;100.00;96926.63;1033249;28;20030;-67
2021/09/30 04:15:53;;;;;;;5.22;1.13;;;;;;;7.52;100.00;96932.44;1032420;28;20621;-66
2021/09/30 04:16:26;;;;;;;3.25;1.15;;;;;;;7.50;100.00;96924.00;1031843;28;20041;-66
2021/09/30 04:17:00;;;;;;;5.90;1.50;;;;;;;7.49;100.00;96930.25;1027707;28;20031;-67
2021/09/30 04:17:30;;;;;;;4.55;1.17;;;;;;;7.48;100.00;96929.44;1031053;28;20315;-65
2021/09/30 04:18:00;;;;;;;3.72;1.00;;;;;;;7.49;100.00;96925.03;1031578;28;20262;-67
2021/09/30 04:18:31;;;;;;;3.67;0.80;;;;;;;7.47;100.00;96924.44;1033144;28;20064;-67
2021/09/30 04:19:01;;;;;;;2.80;0.90;;;;;;;7.42;100.00;96924.28;1030997;28;20111;-68
2021/09/30 04:19:32;;;;;;;10.40;1.60;;;;;;;7.44;100.00;96933.47;1027273;28;20344;-67
2021/09/30 04:20:03;;;;;;;2.05;0.90;;;;;;;7.42;100.00;96934.72;1027385;28;20015;-66
2021/09/30 04:20:34;;;;;;;2.72;0.90;;;;;;;7.41;100.00;96930.50;1023393;29;20023;-66
2021/09/30 04:21:04;;;;;;;2.17;0.73;;;;;;;7.39;100.00;96928.13;1026949;28;20321;-66
2021/09/30 04:21:35;;;;;;;2.72;1.23;;;;;;;7.37;100.00;96934.56;1034485;28;20018;-65
2021/09/30 04:22:05;;;;;;;7.50;1.10;;;;;;;7.36;100.00;96938.19;1023360;28;20031;-64
2021/09/30 04:22:36;;;;;;;3.83;1.02;;;;;;;7.32;100.00;96930.78;1027071;28;20041;-65
2021/09/30 04:23:06;;;;;;;6.72;1.17;;;;;;;7.36;100.00;96936.38;1027307;28;20638;-65
2021/09/30 04:23:37;;;;;;;3.55;0.90;;;;;;;7.27;100.00;96922.75;1027534;28;20053;-66
2021/09/30 04:24:07;;;;;;;4.13;1.10;;;;;;;7.35;100.00;96940.00;1027365;28;20026;-66
2021/09/30 04:24:40;;;;;;;4.38;1.23;;;;;;;7.33;100.00;96937.59;1023330;28;20034;-66
2021/09/30 04:25:11;;;;;;;4.00;1.05;;;;;;;7.28;100.00;96934.81;1027257;28;20050;-66
2021/09/30 04:25:42;;;;;;;1.95;0.90;;;;;;;7.32;100.00;96936.00;1027179;28;20280;-67
2021/09/30 04:26:12;;;;;;;2.70;0.88;;;;;;;7.31;100.00;96934.41;1030776;28;20026;-63
2021/09/30 04:26:46;;;;;;;2.97;0.98;;;;;;;7.27;100.00;96933.19;1030942;28;20030;-66
2021/09/30 04:27:17;;;;;;;3.00;1.13;;;;;;;7.30;100.00;96934.59;1029056;28;20033;-66
2021/09/30 04:27:47;;;;;;;3.03;0.98;;;;;;;7.30;100.00;96932.00;1035024;28;20279;-66
2021/09/30 04:28:20;;;;;;;2.95;1.13;;;;;;;7.29;100.00;96931.19;1031291;28;20026;-64
2021/09/30 04:28:50;;;;;;;2.70;0.88;;;;;;;7.31;100.00;96939.63;1027465;28;20121;-65
2021/09/30 04:29:21;;;;;;;2.83;0.75;;;;;;;7.32;100.00;96943.81;1031581;28;21033;-67
2021/09/30 04:29:51;;;;;;;1.75;0.88;;;;;;;7.22;100.00;96930.44;1031025;28;20894;-67
2021/09/30 04:30:22;;;;;;;2.78;0.93;;;;;;;7.26;100.00;96939.44;1027516;28;20026;-67
2021/09/30 04:30:52;;;;;;;2.70;1.00;;;;;;;7.25;100.00;96944.88;1023268;28;20060;-67
2021/09/30 04:31:23;;;;;;;2.22;0.80;;;;;;;7.24;100.00;96938.03;1030718;28;20038;-67
2021/09/30 04:31:54;;;;;;;2.72;1.05;;;;;;;7.25;100.00;96945.69;1027126;28;20121;-67
2021/09/30 04:32:25;;;;;;;6.18;0.98;;;;;;;7.22;100.00;96934.88;1028418;28;20401;-67
2021/09/30 04:32:55;;;;;;;4.28;1.08;;;;;;;7.25;100.00;96943.06;1029866;28;20392;-67
2021/09/30 04:33:25;;;;;;;3.47;1.42;;;;;;;7.24;100.00;96945.88;1023185;28;20019;-65
2021/09/30 04:33:56;;;;;;;6.00;1.40;;;;;;;7.24;100.00;96949.31;1019219;29;20031;-67
2021/09/30 04:34:26;;;;;;;16.63;1.77;;;;;;;7.23;100.00;96952.13;1023038;28;20019;-65
2021/09/30 04:34:57;;;;;;;3.85;1.20;;;;;;;7.24;100.00;96949.31;1023308;28;20019;-66
2021/09/30 04:35:27;;;;;;;7.93;1.20;;;;;;;7.16;100.00;96940.94;1031621;28;20029;-66
2021/09/30 04:35:58;;;;;;;3.78;1.20;;;;;;;7.19;100.00;96951.75;1032423;28;20026;-67
2021/09/30 04:36:28;;;;;;;7.05;1.25;;;;;;;7.14;100.00;96943.72;1030868;28;20400;-66
2021/09/30 04:36:59;;;;;;;6.07;1.08;;;;;;;7.08;100.00;96931.53;1027436;28;20029;-68
2021/09/30 04:37:29;;;;;;;2.85;1.25;;;;;;;7.08;100.00;96944.59;1024256;28;20051;-67
2021/09/30 04:38:00;;;;;;;5.45;1.10;;;;;;;7.12;100.00;96948.38;1022937;28;20004;-66
2021/09/30 04:38:30;;;;;;;7.18;1.15;;;;;;;7.07;100.00;96956.03;1023549;28;20019;-66
2021/09/30 04:39:01;;;;;;;3.78;1.15;;;;;;;7.03;100.00;96957.47;1027457;28;20023;-65
2021/09/30 04:39:31;;;;;;;4.97;1.33;;;;;;;7.03;100.00;96954.84;1031039;28;20084;-66
2021/09/30 04:40:03;;;;;;;3.97;1.27;;;;;;;6.94;100.00;96943.06;1031308;28;20037;-67
2021/09/30 04:40:33;;;;;;;2.60;1.10;;;;;;;6.97;100.00;96958.28;1027141;28;20576;-68
2021/09/30 04:41:03;;;;;;;2.17;1.10;;;;;;;6.97;100.00;96955.69;1023203;29;20278;-66
2021/09/30 04:41:34;;;;;;;2.55;0.95;;;;;;;6.95;100.00;96955.91;1022615;28;20022;-67
2021/09/30 04:42:04;;;;;;;3.75;1.45;;;;;;;6.94;100.00;96961.31;1023503;28;20030;-66
2021/09/30 04:42:38;;;;;;;1.98;0.93;;;;;;;6.93;100.00;96954.50;1023531;28;20039;-66
2021/09/30 04:43:08;;;;;;;2.63;1.10;;;;;;;6.88;100.00;96955.13;1020175;28;20019;-66
2021/09/30 04:43:39;;;;;;;3.05;1.50;;;;;;;6.87;100.00;96958.75;1019925;29;20263;-66
2021/09/30 04:44:11;;;;;;;4.05;1.00;;;;;;;6.84;100.00;96952.16;1019856;28;20800;-64
2021/09/30 04:44:41;;;;;;;1.73;1.00;;;;;;;6.75;100.00;96944.78;1024167;28;20019;-66
2021/09/30 04:45:12;;;;;;;5.05;1.48;;;;;;;6.79;100.00;96953.78;1027432;28;20262;-66
2021/09/30 04:45:42;;;;;;;5.32;1.38;;;;;;;6.78;100.00;96955.59;1027571;28;20071;-68
2021/09/30 04:46:13;;;;;;;3.38;1.00;;;;;;;6.77;100.00;96954.00;1030944;28;20068;-66
2021/09/30 04:46:44;;;;;;;1.88;1.08;;;;;;;6.77;100.00;96959.22;1023252;29;20051;-68
2021/09/30 04:47:14;;;;;;;1.75;1.10;;;;;;;6.75;100.00;96957.81;1026239;28;20337;-68
2021/09/30 04:47:45;;;;;;;8.18;1.67;;;;;;;6.74;100.00;96958.81;1019241;29;20024;-68
2021/09/30 04:48:18;;;;;;;6.75;1.50;;;;;;;6.70;100.00;96963.63;1023800;28;20098;-69
2021/09/30 04:48:49;;;;;;;6.22;1.77;;;;;;;6.67;100.00;96958.81;1035182;28;20284;-68
2021/09/30 04:49:19;;;;;;;7.47;1.50;;;;;;;6.67;100.00;96960.63;1027218;28;20018;-69
2021/09/30 04:49:50;;;;;;;5.15;1.60;;;;;;;6.58;100.00;96945.25;1021721;29;20027;-69
2021/09/30 04:50:20;;;;;;;10.52;2.20;;;;;;;6.61;100.00;96955.25;1021751;28;20040;-68
2021/09/30 04:50:52;;;;;;;17.42;2.50;;;;;;;6.60;100.00;96955.44;1027235;28;20035;-68
2021/09/30 04:51:22;;;;;;;12.57;2.25;;;;;;;6.61;100.00;96957.06;1023926;28;20042;-69
2021/09/30 04:51:58;;;;;;;29.10;3.50;;;;;;;6.54;100.00;96953.69;1027292;28;20366;-69
2021/09/30 04:52:29;;;;;;;14.40;2.92;;;;;;;6.59;100.00;96952.03;1025160;28;20271;-69
2021/09/30 04:53:01;;;;;;;14.50;2.13;;;;;;;6.59;100.00;96959.06;1028843;28;20790;-69
2021/09/30 04:53:32;;;;;;;11.50;2.60;;;;;;;6.58;100.00;96954.88;1026958;28;20046;-69
2021/09/30 04:54:02;;;;;;;30.42;3.58;;;;;;;6.57;100.00;96953.25;1020760;28;20267;-66
2021/09/30 04:54:33;;;;;;;5.40;1.40;;;;;;;6.58;100.00;96960.09;1024489;28;20015;-69
2021/09/30 04:55:04;;;;;;;5.97;1.80;;;;;;;6.56;100.00;96959.47;1027025;28;20037;-69
2021/09/30 04:55:34;;;;;;;10.88;1.67;;;;;;;6.55;100.00;96956.06;1019318;29;20438;-69
2021/09/30 04:56:05;;;;;;;7.88;2.10;;;;;;;6.51;100.00;96954.09;1027041;28;20400;-69
2021/09/30 04:56:35;;;;;;;10.98;1.92;;;;;;;6.56;100.00;96960.28;1024553;28;20015;-68
2021/09/30 04:57:06;;;;;;;4.63;1.77;;;;;;;6.52;100.00;96958.31;1030989;28;20025;-67
2021/09/30 04:57:37;;;;;;;4.45;1.00;;;;;;;6.54;100.00;96956.31;1025732;28;20026;-66
2021/09/30 04:58:07;;;;;;;2.25;1.00;;;;;;;6.61;100.00;96959.69;1026936;28;20117;-68
2021/09/30 04:58:38;;;;;;;7.70;1.67;;;;;;;6.61;100.00;96959.69;1035286;28;20033;-68
2021/09/30 04:59:09;;;;;;;4.32;1.42;;;;;;;6.58;100.00;96954.88;1026941;28;20385;-67
2021/09/30 04:59:39;;;;;;;10.57;1.40;;;;;;;6.59;100.00;96957.25;1026682;28;20270;-67
2021/09/30 05:00:10;;;;;;;7.45;1.60;;;;;;;6.55;100.00;96957.91;1019482;29;20031;-68
2021/09/30 05:00:41;;;;;;;5.72;1.25;;;;;;;6.56;100.00;96954.28;1019193;29;20107;-68
2021/09/30 05:01:14;;;;;;;5.05;1.25;;;;;;;6.57;100.00;96961.06;1024373;28;20507;-68
2021/09/30 05:01:44;;;;;;;7.55;1.33;;;;;;;6.56;100.00;96956.88;1027568;28;20704;-68
2021/09/30 05:02:15;;;;;;;3.97;1.38;;;;;;;6.54;100.00;96957.09;1024919;28;20039;-68
2021/09/30 05:02:47;;;;;;;6.13;1.40;;;;;;;6.54;100.00;96953.69;1027396;28;20031;-66
2021/09/30 05:03:17;;;;;;;3.17;1.00;;;;;;;6.47;100.00;96947.69;1027153;28;20030;-68
2021/09/30 05:03:48;;;;;;;4.60;1.45;;;;;;;6.54;100.00;96953.69;1027353;28;20274;-68
2021/09/30 05:04:18;;;;;;;3.92;0.82;;;;;;;6.54;100.00;96953.69;1031924;28;20018;-68
2021/09/30 05:04:49;;;;;;;4.30;1.05;;;;;;;6.51;100.00;96956.72;1031054;28;20026;-66
2021/09/30 05:05:19;;;;;;;4.40;1.20;;;;;;;6.51;100.00;96954.91;1030706;28;20239;-67
2021/09/30 05:05:50;;;;;;;5.65;1.10;;;;;;;6.50;100.00;96955.09;1027686;28;20122;-66
2021/09/30 05:06:20;;;;;;;6.57;1.50;;;;;;;6.49;100.00;96951.69;1023469;28;20019;-69
2021/09/30 05:06:52;;;;;;;2.03;1.15;;;;;;;6.50;100.00;96957.69;1027386;28;20046;-68
2021/09/30 05:07:22;;;;;;;1.45;1.05;;;;;;;6.48;100.00;96954.50;1030416;28;20026;-68